createdAt,value
2022-09-09T00:06:24.845Z,100553.88
2022-09-09T00:13:43.558Z,100558.72
2022-09-09T00:21:03.944Z,100552.66
2022-09-09T00:28:15.753Z,100537.56
2022-09-09T00:35:19.790Z,100542.44
2022-09-09T00:42:25.045Z,100534.03
2022-09-09T00:50:01.031Z,100541.59
2022-09-09T00:57:32.175Z,100541.00
2022-09-09T01:04:35.567Z,100540.78
2022-09-09T01:11:39.074Z,100546.22
2022-09-09T01:18:46.573Z,100562.78
2022-09-09T01:26:10.120Z,100552.44
2022-09-09T01:33:14.802Z,100553.38
2022-09-09T01:40:17.095Z,100548.31
2022-09-09T01:47:19.202Z,100545.84
2022-09-09T01:54:41.020Z,100548.22
2022-09-09T02:02:10.722Z,100543.91
2022-09-09T02:09:15.903Z,100550.69
2022-09-09T02:16:35.239Z,100560.97
2022-09-09T02:23:37.111Z,100559.38
2022-09-09T02:30:43.108Z,100566.78
2022-09-09T02:37:47.142Z,100557.16
2022-09-09T02:44:50.104Z,100561.00
2022-09-09T02:52:03.573Z,100557.00
2022-09-09T02:59:06.364Z,100551.25
2022-09-09T03:06:10.935Z,100547.41
2022-09-09T03:13:16.206Z,100563.72
2022-09-09T03:20:19.656Z,100577.66
2022-09-09T03:27:21.473Z,100588.91
2022-09-09T03:34:23.218Z,100585.56
2022-09-09T03:41:25.392Z,100577.44
2022-09-09T03:48:28.990Z,100578.66
2022-09-09T03:55:31.367Z,100585.19
2022-09-09T04:02:33.130Z,100584.59
2022-09-09T04:09:35.679Z,100584.72
2022-09-09T04:16:38.420Z,100577.66
2022-09-09T04:23:40.427Z,100582.09
2022-09-09T04:30:42.492Z,100588.88
2022-09-09T04:37:45.862Z,100601.72
2022-09-09T04:44:47.642Z,100599.13
2022-09-09T04:51:52.835Z,100599.38
2022-09-09T04:58:55.518Z,100612.59
2022-09-09T05:06:27.554Z,100626.78
2022-09-09T05:13:33.133Z,100617.75
2022-09-09T05:20:35.423Z,100620.47
2022-09-09T05:27:37.472Z,100617.66
2022-09-09T05:34:40.281Z,100621.34
2022-09-09T05:41:42.323Z,100603.72
2022-09-09T05:48:47.271Z,100618.50
2022-09-09T05:55:49.802Z,100622.19
2022-09-09T06:02:53.495Z,100629.75
2022-09-09T06:09:56.685Z,100629.63
2022-09-09T06:16:58.531Z,100646.91
2022-09-09T06:24:04.789Z,100638.06
2022-09-09T06:31:08.307Z,100640.50
2022-09-09T06:38:10.263Z,100638.13
2022-09-09T06:45:13.371Z,100651.06
2022-09-09T06:52:25.871Z,100656.91
2022-09-09T06:59:29.078Z,100650.69
2022-09-09T07:06:32.610Z,100649.19
2022-09-09T07:13:36.425Z,100649.63
2022-09-09T07:20:39.183Z,100655.78
2022-09-09T07:27:41.637Z,100645.50
2022-09-09T07:34:43.696Z,100654.50
2022-09-09T07:41:47.285Z,100650.63
2022-09-09T07:48:53.034Z,100648.16
2022-09-09T07:55:56.826Z,100651.72
2022-09-09T08:02:58.744Z,100652.66
2022-09-09T08:10:00.326Z,100658.75
2022-09-09T08:17:05.931Z,100666.41
2022-09-09T08:24:09.128Z,100663.00
2022-09-09T08:31:14.302Z,100677.94
2022-09-09T08:38:19.090Z,100663.16
2022-09-09T08:45:38.442Z,100670.47
2022-09-09T08:52:51.233Z,100674.94
2022-09-09T08:59:55.757Z,100675.16
2022-09-09T09:07:08.311Z,100676.88
2022-09-09T09:14:16.746Z,100672.56
2022-09-09T09:21:47.043Z,100681.44
2022-09-09T09:28:51.195Z,100673.91
2022-09-09T09:35:54.504Z,100666.06
2022-09-09T09:43:01.531Z,100661.13
2022-09-09T09:50:05.873Z,100664.38
2022-09-09T09:57:12.767Z,100652.00
2022-09-09T10:04:21.656Z,100667.69
2022-09-09T10:11:25.598Z,100664.19
2022-09-09T10:18:32.257Z,100665.19
2022-09-09T10:25:59.413Z,100666.38
2022-09-09T10:33:16.872Z,100676.59
2022-09-09T10:40:21.178Z,100677.03
2022-09-09T10:47:54.029Z,100677.03
2022-09-09T10:55:21.416Z,100676.06
2022-09-09T11:02:33.494Z,100676.31
2022-09-09T11:09:39.217Z,100662.84
2022-09-09T11:16:49.671Z,100653.41
2022-09-09T11:24:00.903Z,100661.31
2022-09-09T11:31:02.484Z,100662.91
2022-09-09T11:38:28.759Z,100671.06
2022-09-09T11:45:30.382Z,100671.72
2022-09-09T11:52:39.892Z,100659.91
2022-09-09T11:59:51.224Z,100647.34
2022-09-09T12:07:04.214Z,100646.75
2022-09-09T12:14:05.826Z,100624.84
2022-09-09T12:21:26.822Z,100615.75
2022-09-09T12:28:41.704Z,100614.47
2022-09-09T12:35:44.322Z,100615.94
2022-09-09T12:42:45.892Z,100600.66
2022-09-09T12:49:47.714Z,100595.75
2022-09-09T12:56:49.360Z,100602.84
2022-09-09T13:03:51.005Z,100607.72
2022-09-09T13:11:02.634Z,100613.16
2022-09-09T13:18:07.206Z,100622.75
2022-09-09T13:25:12.369Z,100607.91
2022-09-09T13:32:17.848Z,100594.56
2022-09-09T13:39:19.866Z,100585.75
2022-09-09T13:46:36.570Z,100583.38
2022-09-09T13:53:38.213Z,100576.25
2022-09-09T14:00:40.669Z,100581.78
2022-09-09T14:07:43.243Z,100592.28
2022-09-09T14:14:44.924Z,100590.31
2022-09-09T14:21:46.519Z,100586.88
2022-09-09T14:28:56.150Z,100582.97
2022-09-09T14:36:01.885Z,100585.47
2022-09-09T14:43:03.937Z,100563.81
2022-09-09T14:50:07.066Z,100581.16
2022-09-09T14:57:08.640Z,100579.16
2022-09-09T15:04:12.534Z,100585.63
2022-09-09T15:11:14.785Z,100589.25
2022-09-09T15:18:16.861Z,100583.81
2022-09-09T15:25:18.973Z,100567.50
2022-09-09T15:32:20.560Z,100574.13
2022-09-09T15:39:22.955Z,100565.50
2022-09-09T15:46:29.402Z,100554.72
2022-09-09T15:53:33.199Z,100533.53
2022-09-09T16:00:35.268Z,100537.47
2022-09-09T16:07:37.023Z,100563.34
2022-09-09T16:14:39.713Z,100564.59
2022-09-09T16:21:49.712Z,100583.16
2022-09-09T16:28:51.334Z,100589.69
2022-09-09T16:35:52.949Z,100588.94
2022-09-09T16:42:54.929Z,100597.69
2022-09-09T16:49:56.514Z,100597.91
2022-09-09T16:56:58.598Z,100589.94
2022-09-09T17:04:04.293Z,100600.84
2022-09-09T17:11:19.254Z,100582.13
2022-09-09T17:18:21.663Z,100587.03
2022-09-09T17:25:23.864Z,100597.13
2022-09-09T17:32:25.697Z,100584.56
2022-09-09T17:39:27.314Z,100581.66
2022-09-09T17:46:30.888Z,100587.16
2022-09-09T17:53:37.476Z,100598.75
2022-09-09T18:00:39.084Z,100596.16
2022-09-09T18:07:40.649Z,100591.63
2022-09-09T18:14:42.275Z,100614.09
2022-09-09T18:21:44.547Z,100624.59
2022-09-09T18:28:50.908Z,100630.81
2022-09-09T18:35:52.544Z,100644.78
2022-09-09T18:42:54.119Z,100660.91
2022-09-09T18:49:56.175Z,100669.59
2022-09-09T18:56:59.455Z,100678.88
2022-09-09T19:04:01.400Z,100686.19
2022-09-09T19:11:04.932Z,100685.22
2022-09-09T19:18:06.753Z,100685.66
2022-09-09T19:25:08.344Z,100684.69
2022-09-09T19:39:34.427Z,100703.63
2022-09-09T19:46:36.801Z,100702.50
2022-09-09T19:53:40.079Z,100701.94
2022-09-09T20:00:41.939Z,100696.09
2022-09-09T20:07:45.159Z,100700.38
2022-09-09T20:14:47.200Z,100704.38
2022-09-09T20:21:49.435Z,100703.81
2022-09-09T20:28:52.116Z,100710.28
2022-09-09T20:35:54.082Z,100704.53
2022-09-09T20:42:55.650Z,100694.34
2022-09-09T20:49:57.252Z,100682.97
2022-09-09T20:57:00.316Z,100674.66
2022-09-09T21:04:02.343Z,100669.19
2022-09-09T21:11:04.424Z,100668.75
2022-09-09T21:18:05.953Z,100667.88
2022-09-09T21:25:07.918Z,100676.06
2022-09-09T21:32:09.503Z,100677.03
2022-09-09T21:39:11.082Z,100671.13
2022-09-09T21:46:14.613Z,100684.00
2022-09-09T21:53:18.090Z,100695.84
2022-09-09T22:00:19.727Z,100702.81
2022-09-09T22:07:21.324Z,100693.59
2022-09-09T22:14:23.048Z,100695.06
2022-09-09T22:21:26.044Z,100697.78
2022-09-09T22:28:27.620Z,100689.59
2022-09-09T22:35:29.197Z,100679.13
2022-09-09T22:42:30.839Z,100688.56
2022-09-09T22:49:32.439Z,100692.56
2022-09-09T22:56:34.149Z,100681.31
2022-09-09T23:03:35.783Z,100695.75
2022-09-09T23:10:40.425Z,100692.81
2022-09-09T23:17:42.181Z,100680.94
2022-09-09T23:24:43.839Z,100681.81
2022-09-09T23:31:45.687Z,100678.47
2022-09-09T23:38:47.451Z,100682.72
2022-09-09T23:45:50.316Z,100675.94
2022-09-09T23:52:52.261Z,100670.78
2022-09-09T23:59:53.828Z,100669.72
